createdAt,value
2018-07-04T00:00:26.253Z,22.93
2018-07-04T00:01:26.211Z,22.95
2018-07-04T00:02:26.172Z,22.96
2018-07-04T00:03:26.225Z,22.95
2018-07-04T00:04:26.179Z,22.83
2018-07-04T00:05:26.105Z,22.76
2018-07-04T00:06:26.240Z,22.76
2018-07-04T00:07:26.135Z,22.77
2018-07-04T00:08:26.178Z,22.81
2018-07-04T00:09:26.070Z,22.95
2018-07-04T00:10:26.049Z,22.88
2018-07-04T00:11:25.973Z,22.80
2018-07-04T00:12:25.941Z,22.73
2018-07-04T00:13:25.926Z,22.71
2018-07-04T00:14:25.903Z,22.73
2018-07-04T00:15:25.878Z,22.53
2018-07-04T00:16:25.856Z,22.52
2018-07-04T00:17:25.847Z,22.74
2018-07-04T00:18:25.814Z,22.74
2018-07-04T00:19:25.787Z,22.73
2018-07-04T00:20:25.785Z,22.70
2018-07-04T00:21:25.737Z,22.78
2018-07-04T00:22:25.713Z,22.68
2018-07-04T00:23:25.689Z,22.73
2018-07-04T00:24:25.690Z,22.71
2018-07-04T00:25:25.654Z,22.73
2018-07-04T00:26:25.631Z,22.71
2018-07-04T00:27:25.620Z,22.68
2018-07-04T00:28:25.584Z,22.74
2018-07-04T00:29:25.557Z,22.74
2018-07-04T00:30:25.548Z,22.66
2018-07-04T00:31:25.520Z,22.64
2018-07-04T00:32:25.485Z,22.73
2018-07-04T00:33:25.470Z,22.73
2018-07-04T00:34:25.447Z,22.61
2018-07-04T00:35:25.423Z,22.52
2018-07-04T00:36:25.396Z,22.43
2018-07-04T00:37:25.375Z,22.43
2018-07-04T00:38:25.358Z,22.23
2018-07-04T00:39:25.333Z,22.38
2018-07-04T00:40:25.351Z,22.41
2018-07-04T00:41:25.326Z,22.38
2018-07-04T00:42:25.259Z,22.41
2018-07-04T00:43:25.230Z,22.44
2018-07-04T00:44:25.227Z,22.34
2018-07-04T00:45:25.186Z,22.30
2018-07-04T00:46:25.171Z,22.36
2018-07-04T00:47:25.149Z,22.28
2018-07-04T00:48:25.171Z,22.28
2018-07-04T00:49:25.114Z,22.25
2018-07-04T00:50:25.073Z,22.27
2018-07-04T00:51:25.103Z,22.30
2018-07-04T00:52:25.030Z,22.33
2018-07-04T00:53:25.019Z,22.22
2018-07-04T00:54:24.989Z,22.22
2018-07-04T00:55:25.007Z,22.21
2018-07-04T00:56:24.932Z,22.25
2018-07-04T00:57:24.918Z,22.28
2018-07-04T00:58:44.620Z,22.12
2018-07-04T01:00:34.751Z,21.97
2018-07-04T01:01:34.574Z,22.01
2018-07-04T01:03:38.007Z,22.01
2018-07-04T01:04:37.976Z,22.07
2018-07-04T01:06:41.292Z,22.07
2018-07-04T01:07:41.261Z,22.03
2018-07-04T01:10:03.188Z,22.04
2018-07-04T01:11:03.113Z,22.03
2018-07-04T01:13:07.562Z,22.11
2018-07-04T01:14:07.481Z,22.06
2018-07-04T01:16:11.395Z,22.01
2018-07-04T01:17:11.369Z,22.13
2018-07-04T01:19:14.794Z,22.09
2018-07-04T01:20:14.729Z,22.13
2018-07-04T01:22:15.233Z,22.12
2018-07-04T01:23:15.112Z,22.00
2018-07-04T01:25:20.935Z,21.88
2018-07-04T01:26:20.917Z,21.94
2018-07-04T01:27:21.052Z,21.91
2018-07-04T01:28:20.844Z,21.98
2018-07-04T01:29:20.840Z,21.81
2018-07-04T01:30:20.818Z,21.78
2018-07-04T01:31:20.770Z,21.81
2018-07-04T01:32:20.750Z,21.82
2018-07-04T01:33:20.852Z,21.81
2018-07-04T01:34:21.019Z,21.84
2018-07-04T01:35:21.099Z,21.78
2018-07-04T01:36:20.676Z,21.80
2018-07-04T01:37:20.688Z,21.80
2018-07-04T01:38:20.606Z,21.71
2018-07-04T01:39:20.578Z,21.74
2018-07-04T01:40:20.564Z,21.75
2018-07-04T01:41:20.530Z,21.71
2018-07-04T01:42:20.517Z,21.73
2018-07-04T01:43:20.517Z,21.67
2018-07-04T01:44:20.461Z,21.78
2018-07-04T01:45:20.458Z,21.67
2018-07-04T01:46:20.416Z,21.73
2018-07-04T01:47:20.414Z,21.51
2018-07-04T01:48:20.361Z,21.48
2018-07-04T01:49:20.342Z,21.48
2018-07-04T01:50:20.354Z,21.47
2018-07-04T01:51:20.291Z,21.48
2018-07-04T01:52:20.278Z,21.43
2018-07-04T01:53:20.294Z,21.45
2018-07-04T01:54:20.224Z,21.47
2018-07-04T01:55:20.206Z,21.58
2018-07-04T01:56:20.181Z,21.75
2018-07-04T01:57:20.176Z,21.73
2018-07-04T01:58:20.129Z,21.66
2018-07-04T01:59:20.110Z,21.65
2018-07-04T02:00:20.110Z,21.80
2018-07-04T02:01:20.060Z,21.78
2018-07-04T02:02:20.042Z,21.71
2018-07-04T02:03:20.043Z,21.60
2018-07-04T02:04:19.995Z,21.73
2018-07-04T02:05:20.003Z,21.77
2018-07-04T02:06:19.952Z,21.75
2018-07-04T02:07:19.914Z,21.66
2018-07-04T02:08:19.905Z,21.58
2018-07-04T02:09:19.876Z,21.56
2018-07-04T02:10:19.853Z,21.53
2018-07-04T02:11:19.837Z,21.58
2018-07-04T02:12:19.817Z,21.51
2018-07-04T02:13:19.785Z,21.45
2018-07-04T02:14:19.767Z,21.53
2018-07-04T02:15:19.733Z,21.48
2018-07-04T02:16:19.715Z,21.50
2018-07-04T02:17:19.708Z,21.47
2018-07-04T02:18:19.660Z,21.48
2018-07-04T02:19:19.642Z,21.60
2018-07-04T02:20:19.645Z,21.62
2018-07-04T02:21:19.602Z,21.58
2018-07-04T02:22:19.566Z,21.44
2018-07-04T02:23:19.552Z,21.55
2018-07-04T02:24:19.529Z,21.45
2018-07-04T02:25:19.495Z,21.45
2018-07-04T02:26:19.477Z,21.43
2018-07-04T02:27:19.445Z,21.48
2018-07-04T02:28:19.424Z,21.50
2018-07-04T02:29:19.410Z,21.41
2018-07-04T02:30:19.393Z,21.40
2018-07-04T02:31:19.351Z,21.35
2018-07-04T02:32:19.336Z,21.29
2018-07-04T02:33:19.302Z,21.30
2018-07-04T02:34:19.280Z,21.32
2018-07-04T02:35:19.260Z,21.29
2018-07-04T02:36:19.234Z,21.26
2018-07-04T02:37:19.255Z,21.19
2018-07-04T02:38:19.186Z,21.20
2018-07-04T02:39:19.155Z,21.19
2018-07-04T02:40:19.151Z,21.11
2018-07-04T02:41:19.120Z,21.11
2018-07-04T02:42:19.091Z,21.18
2018-07-04T02:43:19.076Z,21.08
2018-07-04T02:44:19.047Z,21.14
2018-07-04T02:45:19.028Z,21.13
2018-07-04T02:46:18.999Z,21.08
2018-07-04T02:47:19.069Z,21.11
2018-07-04T02:48:18.994Z,21.04
2018-07-04T02:49:18.928Z,21.16
2018-07-04T02:50:18.929Z,21.11
2018-07-04T02:51:18.879Z,21.07
2018-07-04T02:52:18.864Z,21.16
2018-07-04T02:53:18.844Z,21.20
2018-07-04T02:54:18.850Z,21.14
2018-07-04T02:55:18.791Z,21.20
2018-07-04T02:56:18.761Z,21.22
2018-07-04T02:57:18.738Z,21.13
2018-07-04T02:58:18.719Z,21.08
2018-07-04T02:59:18.688Z,21.11
2018-07-04T03:00:18.671Z,21.04
2018-07-04T03:01:18.642Z,21.13
2018-07-04T03:02:18.674Z,21.18
2018-07-04T03:03:18.638Z,21.22
2018-07-04T03:04:18.617Z,21.16
2018-07-04T03:05:18.612Z,21.26
2018-07-04T03:06:18.527Z,21.26
2018-07-04T03:07:18.540Z,21.25
2018-07-04T03:08:18.469Z,21.25
2018-07-04T03:09:18.446Z,21.26
2018-07-04T03:10:18.435Z,21.26
2018-07-04T03:11:18.396Z,21.32
2018-07-04T03:12:18.377Z,21.32
2018-07-04T03:13:18.366Z,21.23
2018-07-04T03:14:18.331Z,21.18
2018-07-04T03:15:18.319Z,21.01
2018-07-04T03:16:18.285Z,20.88
2018-07-04T03:17:18.264Z,20.82
2018-07-04T03:18:18.239Z,20.83
2018-07-04T03:19:18.214Z,20.93
2018-07-04T03:20:18.193Z,20.86
2018-07-04T03:21:18.156Z,20.83
2018-07-04T03:22:18.132Z,20.83
2018-07-04T03:23:18.109Z,20.82
2018-07-04T03:24:18.098Z,20.89
2018-07-04T03:25:18.132Z,20.89
2018-07-04T03:26:18.046Z,21.00
2018-07-04T03:27:18.039Z,20.95
2018-07-04T03:28:17.997Z,20.97
2018-07-04T03:29:17.976Z,20.93
2018-07-04T03:30:17.946Z,21.01
2018-07-04T03:31:17.922Z,21.00
2018-07-04T03:32:17.902Z,20.97
2018-07-04T03:33:17.874Z,21.04
2018-07-04T03:34:17.852Z,20.95
2018-07-04T03:35:17.818Z,21.01
2018-07-04T03:36:17.813Z,21.05
2018-07-04T03:37:17.844Z,21.05
2018-07-04T03:38:17.765Z,20.92
2018-07-04T03:39:17.737Z,20.95
2018-07-04T03:40:17.704Z,21.05
2018-07-04T03:41:17.678Z,21.07
2018-07-04T03:42:17.689Z,21.11
2018-07-04T03:43:17.633Z,21.07
2018-07-04T03:44:17.623Z,21.07
2018-07-04T03:45:17.599Z,21.13
2018-07-04T03:46:17.567Z,21.10
2018-07-04T03:47:17.541Z,21.04
2018-07-04T03:48:17.590Z,21.01
2018-07-04T03:49:17.483Z,20.86
2018-07-04T03:50:17.467Z,20.85
2018-07-04T03:51:17.442Z,20.98
2018-07-04T03:52:17.416Z,20.89
2018-07-04T03:53:17.400Z,21.01
2018-07-04T03:54:17.386Z,20.93
2018-07-04T03:55:17.380Z,21.07
2018-07-04T03:56:17.326Z,20.95
2018-07-04T03:57:17.295Z,20.88
2018-07-04T03:58:17.292Z,20.86
2018-07-04T03:59:17.246Z,20.82
2018-07-04T04:00:17.230Z,20.73
2018-07-04T04:01:17.207Z,20.83
2018-07-04T04:02:17.172Z,20.82
2018-07-04T04:03:17.161Z,20.82
2018-07-04T04:04:17.136Z,20.73
2018-07-04T04:05:17.119Z,20.70
2018-07-04T04:06:17.081Z,20.65
2018-07-04T04:07:17.069Z,20.67
2018-07-04T04:08:17.031Z,20.73
2018-07-04T04:09:17.009Z,20.65
2018-07-04T04:10:16.994Z,20.75
2018-07-04T04:11:16.960Z,20.73
2018-07-04T04:12:16.931Z,20.70
2018-07-04T04:13:16.923Z,20.65
2018-07-04T04:14:16.931Z,20.75
2018-07-04T04:15:16.878Z,20.74
2018-07-04T04:16:16.843Z,20.73
2018-07-04T04:17:16.823Z,20.70
2018-07-04T04:18:16.795Z,20.77
2018-07-04T04:19:16.764Z,20.75
2018-07-04T04:20:16.753Z,20.86
2018-07-04T04:21:16.827Z,20.90
2018-07-04T04:22:16.715Z,20.89
2018-07-04T04:23:16.679Z,20.95
2018-07-04T04:24:16.641Z,20.93
2018-07-04T04:25:16.679Z,20.98
2018-07-04T04:26:16.607Z,20.90
2018-07-04T04:27:16.582Z,20.85
2018-07-04T04:28:16.553Z,20.85
2018-07-04T04:29:16.535Z,20.92
2018-07-04T04:30:16.508Z,20.85
2018-07-04T04:31:16.483Z,20.89
2018-07-04T04:32:16.450Z,20.89
2018-07-04T04:33:16.433Z,20.86
2018-07-04T04:34:16.400Z,20.92
2018-07-04T04:35:16.391Z,20.92
2018-07-04T04:36:16.409Z,20.83
2018-07-04T04:37:16.333Z,20.80
2018-07-04T04:38:16.317Z,20.83
2018-07-04T04:39:16.288Z,20.85
2018-07-04T04:40:16.325Z,20.80
2018-07-04T04:41:16.239Z,20.89
2018-07-04T04:42:16.223Z,20.92
2018-07-04T04:43:16.186Z,21.05
2018-07-04T04:44:16.177Z,21.14
2018-07-04T04:45:16.193Z,21.22
2018-07-04T04:46:16.120Z,21.14
2018-07-04T04:47:16.131Z,21.01
2018-07-04T04:48:16.073Z,21.08
2018-07-04T04:49:16.060Z,21.00
2018-07-04T04:50:16.024Z,21.08
2018-07-04T04:51:16.029Z,21.07
2018-07-04T04:52:15.978Z,21.14
2018-07-04T04:53:15.942Z,21.13
2018-07-04T04:54:15.936Z,21.18
2018-07-04T04:55:15.915Z,21.20
2018-07-04T04:56:15.877Z,21.19
2018-07-04T04:57:15.852Z,21.16
2018-07-04T04:58:15.840Z,21.32
2018-07-04T04:59:15.812Z,21.26
2018-07-04T05:00:15.786Z,21.29
2018-07-04T05:01:15.763Z,21.18
2018-07-04T05:02:15.737Z,21.19
2018-07-04T05:03:15.710Z,21.18
2018-07-04T05:04:15.690Z,21.18
2018-07-04T05:05:15.699Z,21.25
2018-07-04T05:06:15.639Z,21.26
2018-07-04T05:07:15.629Z,21.32
2018-07-04T05:08:15.631Z,21.48
2018-07-04T05:09:15.578Z,21.45
2018-07-04T05:10:15.547Z,21.59
2018-07-04T05:11:15.548Z,21.65
2018-07-04T05:12:15.511Z,21.58
2018-07-04T05:13:15.485Z,21.59
2018-07-04T05:14:15.463Z,21.58
2018-07-04T05:15:15.442Z,21.45
2018-07-04T05:16:15.400Z,21.51
2018-07-04T05:17:15.380Z,21.56
2018-07-04T05:18:15.413Z,21.59
2018-07-04T05:19:15.338Z,21.69
2018-07-04T05:20:15.308Z,21.56
2018-07-04T05:21:15.297Z,21.45
2018-07-04T05:22:15.278Z,21.43
2018-07-04T05:23:15.238Z,21.50
2018-07-04T05:24:15.244Z,21.58
2018-07-04T05:25:15.244Z,21.59
2018-07-04T05:26:15.180Z,21.67
2018-07-04T05:27:15.146Z,21.60
2018-07-04T05:28:15.214Z,21.65
2018-07-04T05:29:15.160Z,21.75
2018-07-04T05:30:15.125Z,21.85
2018-07-04T05:31:15.062Z,22.00
2018-07-04T05:32:15.065Z,21.81
2018-07-04T05:33:15.007Z,21.80
2018-07-04T05:34:14.985Z,21.81
2018-07-04T05:35:15.035Z,21.80
2018-07-04T05:36:14.937Z,21.80
2018-07-04T05:37:14.915Z,21.80
2018-07-04T05:38:14.906Z,21.75
2018-07-04T05:39:14.873Z,21.80
2018-07-04T05:40:14.844Z,21.82
2018-07-04T05:41:14.823Z,21.85
2018-07-04T05:42:14.794Z,21.84
2018-07-04T05:43:14.775Z,21.82
2018-07-04T05:44:14.778Z,21.97
2018-07-04T05:45:14.738Z,21.97
2018-07-04T05:46:14.804Z,22.09
2018-07-04T05:47:14.770Z,22.09
2018-07-04T05:48:14.660Z,22.23
2018-07-04T05:49:14.632Z,22.44
2018-07-04T05:50:14.610Z,22.37
2018-07-04T05:51:14.587Z,22.46
2018-07-04T05:52:14.573Z,22.44
2018-07-04T05:53:14.548Z,22.46
2018-07-04T05:54:14.540Z,22.44
2018-07-04T05:55:14.512Z,22.48
2018-07-04T05:56:14.573Z,22.41
2018-07-04T05:57:14.444Z,22.51
2018-07-04T05:58:14.431Z,22.53
2018-07-04T05:59:14.431Z,22.43
2018-07-04T06:00:14.377Z,22.43
2018-07-04T06:01:14.360Z,22.44
2018-07-04T06:02:14.335Z,22.56
2018-07-04T06:03:14.326Z,22.48
2018-07-04T06:04:14.294Z,22.56
2018-07-04T06:05:14.271Z,22.59
2018-07-04T06:06:14.250Z,22.44
2018-07-04T06:07:14.222Z,22.43
2018-07-04T06:08:14.210Z,22.49
2018-07-04T06:09:14.235Z,22.41
2018-07-04T06:10:14.147Z,22.13
2018-07-04T06:11:14.128Z,22.13
2018-07-04T06:12:14.114Z,22.13
2018-07-04T06:13:14.093Z,22.22
2018-07-04T06:14:14.054Z,22.43
2018-07-04T06:15:14.034Z,22.34
2018-07-04T06:16:14.027Z,22.31
2018-07-04T06:17:14.009Z,22.33
2018-07-04T06:18:13.976Z,22.40
2018-07-04T06:19:13.990Z,22.40
2018-07-04T06:20:13.927Z,22.37
2018-07-04T06:21:13.897Z,22.58
2018-07-04T06:22:13.877Z,22.56
2018-07-04T06:23:13.869Z,22.55
2018-07-04T06:24:13.846Z,22.67
2018-07-04T06:25:13.813Z,22.67
2018-07-04T06:26:13.790Z,22.55
2018-07-04T06:27:13.792Z,22.52
2018-07-04T06:28:13.744Z,22.68
2018-07-04T06:29:13.723Z,22.67
2018-07-04T06:30:13.702Z,22.76
2018-07-04T06:31:13.680Z,22.81
2018-07-04T06:32:13.656Z,22.88
2018-07-04T06:33:13.643Z,22.98
2018-07-04T06:34:13.600Z,23.13
2018-07-04T06:35:13.585Z,23.26
2018-07-04T06:36:13.559Z,23.26
2018-07-04T06:37:13.543Z,23.34
2018-07-04T06:38:13.516Z,23.36
2018-07-04T06:39:13.549Z,23.37
2018-07-04T06:40:13.490Z,23.42
2018-07-04T06:41:13.445Z,23.54
2018-07-04T06:42:13.447Z,23.56
2018-07-04T06:43:13.401Z,23.54
2018-07-04T06:44:13.385Z,23.48
2018-07-04T06:45:13.365Z,23.46
2018-07-04T06:46:13.332Z,23.59
2018-07-04T06:47:13.323Z,23.70
2018-07-04T06:48:13.292Z,23.69
2018-07-04T06:49:13.340Z,23.78
2018-07-04T06:50:13.257Z,23.86
2018-07-04T06:51:13.270Z,23.76
2018-07-04T06:52:13.200Z,23.73
2018-07-04T06:53:13.173Z,23.88
2018-07-04T06:54:13.197Z,23.74
2018-07-04T06:55:13.130Z,23.73
2018-07-04T06:56:13.113Z,23.82
2018-07-04T06:57:16.063Z,23.76
2018-07-04T06:58:13.084Z,23.89
2018-07-04T06:59:13.055Z,23.86
2018-07-04T07:00:13.028Z,24.10
2018-07-04T07:01:13.020Z,24.00
2018-07-04T07:02:12.980Z,24.04
2018-07-04T07:03:12.970Z,24.06
2018-07-04T07:04:12.940Z,24.07
2018-07-04T07:05:12.927Z,24.03
2018-07-04T07:06:12.889Z,24.04
2018-07-04T07:07:12.866Z,24.07
2018-07-04T07:08:12.916Z,24.23
2018-07-04T07:09:12.834Z,24.26
2018-07-04T07:10:12.803Z,24.36
2018-07-04T07:11:12.787Z,24.22
2018-07-04T07:12:12.764Z,24.41
2018-07-04T07:13:12.742Z,24.38
2018-07-04T07:14:12.718Z,24.38
2018-07-04T07:15:12.694Z,24.26
2018-07-04T07:16:12.673Z,24.25
2018-07-04T07:17:12.651Z,24.26
2018-07-04T07:18:12.622Z,24.23
2018-07-04T07:19:12.608Z,24.22
2018-07-04T07:20:12.579Z,24.22
2018-07-04T07:21:12.629Z,24.43
2018-07-04T07:22:12.542Z,24.44
2018-07-04T07:23:12.517Z,24.51
2018-07-04T07:24:12.504Z,24.44
2018-07-04T07:25:12.469Z,24.40
2018-07-04T07:26:12.443Z,24.43
2018-07-04T07:27:12.428Z,24.52
2018-07-04T07:28:12.413Z,24.58
2018-07-04T07:29:12.404Z,24.59
2018-07-04T07:30:12.366Z,24.56
2018-07-04T07:31:12.346Z,24.63
2018-07-04T07:32:12.324Z,24.71
2018-07-04T07:33:12.345Z,24.85
2018-07-04T07:34:12.464Z,24.90
2018-07-04T07:35:12.251Z,24.94
2018-07-04T07:36:12.249Z,24.84
2018-07-04T07:37:12.251Z,24.94
2018-07-04T07:38:12.196Z,24.97
2018-07-04T07:39:12.167Z,24.90
2018-07-04T07:40:12.168Z,24.90
2018-07-04T07:41:12.126Z,24.84
2018-07-04T07:42:12.100Z,24.91
2018-07-04T07:43:12.092Z,24.96
2018-07-04T07:44:12.056Z,25.08
2018-07-04T07:45:12.036Z,25.01
2018-07-04T07:46:12.006Z,25.12
2018-07-04T07:47:12.004Z,25.18
2018-07-04T07:48:11.976Z,25.15
2018-07-04T07:49:11.950Z,25.12
2018-07-04T07:50:11.929Z,25.16
2018-07-04T07:51:11.902Z,25.22
2018-07-04T07:52:11.882Z,25.23
2018-07-04T07:53:11.872Z,25.28
2018-07-04T07:54:11.882Z,25.19
2018-07-04T07:55:11.817Z,25.08
2018-07-04T07:56:11.803Z,25.03
2018-07-04T07:57:11.774Z,25.19
2018-07-04T07:58:11.757Z,25.34
2018-07-04T07:59:11.730Z,25.37
2018-07-04T08:00:11.714Z,25.49
2018-07-04T08:01:11.696Z,25.51
2018-07-04T08:02:11.674Z,25.59
2018-07-04T08:03:11.651Z,25.70
2018-07-04T08:04:11.622Z,25.75
2018-07-04T08:05:11.612Z,25.81
2018-07-04T08:06:11.591Z,25.81
2018-07-04T08:07:11.562Z,25.90
2018-07-04T08:08:11.547Z,25.96
2018-07-04T08:09:11.548Z,25.93
2018-07-04T08:10:11.490Z,26.01
2018-07-04T08:11:11.476Z,26.07
2018-07-04T08:12:11.460Z,26.11
2018-07-04T08:13:11.440Z,26.15
2018-07-04T08:14:11.419Z,26.21
2018-07-04T08:15:13.081Z,26.30
2018-07-04T08:16:11.394Z,26.30
2018-07-04T08:17:11.353Z,26.24
2018-07-04T08:18:11.327Z,26.36
2018-07-04T08:19:11.306Z,26.42
2018-07-04T08:20:11.287Z,26.42
2018-07-04T08:21:11.260Z,26.46
2018-07-04T08:22:11.249Z,26.45
2018-07-04T08:23:11.234Z,26.64
2018-07-04T08:24:11.211Z,26.68
2018-07-04T08:25:11.182Z,26.82
2018-07-04T08:26:11.159Z,26.75
2018-07-04T08:27:11.233Z,26.82
2018-07-04T08:28:11.118Z,26.89
2018-07-04T08:29:11.124Z,26.94
2018-07-04T08:30:11.083Z,27.15
2018-07-04T08:31:11.138Z,27.01
2018-07-04T08:32:11.034Z,27.19
2018-07-04T08:33:11.025Z,27.20
2018-07-04T08:34:11.007Z,27.25
2018-07-04T08:35:10.975Z,27.16
2018-07-04T08:36:10.954Z,27.17
2018-07-04T08:37:10.943Z,27.20
2018-07-04T08:38:10.918Z,27.19
2018-07-04T08:39:10.930Z,27.23
2018-07-04T08:40:10.881Z,27.38
2018-07-04T08:41:10.871Z,27.45
2018-07-04T08:42:10.846Z,27.45
2018-07-04T08:43:10.820Z,27.40
2018-07-04T08:44:10.808Z,27.44
2018-07-04T08:45:10.769Z,27.58
2018-07-04T08:46:10.776Z,27.63
2018-07-04T08:47:10.732Z,27.64
2018-07-04T08:48:10.770Z,27.61
2018-07-04T08:49:10.801Z,27.78
2018-07-04T08:50:10.673Z,27.85
2018-07-04T08:51:10.650Z,27.98
2018-07-04T08:52:10.821Z,28.00
2018-07-04T08:53:10.617Z,28.03
2018-07-04T08:54:10.806Z,28.16
2018-07-04T08:55:12.108Z,28.15
2018-07-04T08:56:10.551Z,28.13
2018-07-04T08:57:10.543Z,28.15
2018-07-04T08:58:10.519Z,28.19
2018-07-04T08:59:10.490Z,28.10
2018-07-04T09:00:10.495Z,28.10
2018-07-04T09:01:10.452Z,28.10
2018-07-04T09:02:10.449Z,27.95
2018-07-04T09:03:10.425Z,28.05
2018-07-04T09:04:10.425Z,28.16
2018-07-04T09:05:10.367Z,28.20
2018-07-04T09:06:10.349Z,28.34
2018-07-04T09:07:10.339Z,28.38
2018-07-04T09:08:10.314Z,28.37
2018-07-04T09:09:10.307Z,28.38
2018-07-04T09:10:10.298Z,28.57
2018-07-04T09:11:10.267Z,28.71
2018-07-04T09:12:10.257Z,28.74
2018-07-04T09:13:10.227Z,28.69
2018-07-04T09:14:10.195Z,28.84
2018-07-04T09:15:10.187Z,28.83
2018-07-04T09:16:10.169Z,28.84
2018-07-04T09:17:10.207Z,28.81
2018-07-04T09:18:10.117Z,28.80
2018-07-04T09:19:10.130Z,28.80
2018-07-04T09:20:10.092Z,28.96
2018-07-04T09:21:10.061Z,29.10
2018-07-04T09:22:10.043Z,29.12
2018-07-04T09:23:10.034Z,29.22
2018-07-04T09:24:10.037Z,29.29
2018-07-04T09:25:10.009Z,29.43
2018-07-04T09:26:09.970Z,29.31
2018-07-04T09:27:09.960Z,29.34
2018-07-04T09:28:09.968Z,29.39
2018-07-04T09:29:10.016Z,29.44
2018-07-04T09:30:09.887Z,29.47
2018-07-04T09:31:09.882Z,29.52
2018-07-04T09:32:09.866Z,29.21
2018-07-04T09:33:11.621Z,28.87
2018-07-04T09:34:09.817Z,28.86
2018-07-04T09:35:09.828Z,28.83
2018-07-04T09:36:09.779Z,29.10
2018-07-04T09:37:09.759Z,29.22
2018-07-04T09:38:09.738Z,29.18
2018-07-04T09:39:09.726Z,29.27
2018-07-04T09:40:09.720Z,29.21
2018-07-04T09:41:09.701Z,29.13
2018-07-04T09:42:09.666Z,29.36
2018-07-04T09:43:09.663Z,29.46
2018-07-04T09:44:09.630Z,29.63
2018-07-04T09:45:09.617Z,29.68
2018-07-04T09:46:09.593Z,29.74
2018-07-04T09:47:09.591Z,29.92
2018-07-04T09:48:09.557Z,29.92
2018-07-04T09:49:09.540Z,29.66
2018-07-04T09:50:09.515Z,29.87
2018-07-04T09:51:09.511Z,29.74
2018-07-04T09:52:09.488Z,29.40
2018-07-04T09:53:11.311Z,29.41
2018-07-04T09:54:09.449Z,29.47
2018-07-04T09:55:09.433Z,29.78
2018-07-04T09:56:09.443Z,29.74
2018-07-04T09:57:11.198Z,29.93
2018-07-04T09:58:09.386Z,29.78
2018-07-04T09:59:09.362Z,29.92
2018-07-04T10:00:09.343Z,30.02
2018-07-04T10:01:09.317Z,29.98
2018-07-04T10:02:09.303Z,29.92
2018-07-04T10:03:12.101Z,29.89
2018-07-04T10:04:09.291Z,29.65
2018-07-04T10:05:09.257Z,29.71
2018-07-04T10:06:09.231Z,29.41
2018-07-04T10:07:09.229Z,29.50
2018-07-04T10:08:09.218Z,29.50
2018-07-04T10:09:09.171Z,29.54
2018-07-04T10:10:09.157Z,29.29
2018-07-04T10:11:09.154Z,29.31
2018-07-04T10:12:09.143Z,29.43
2018-07-04T10:13:09.113Z,29.54
2018-07-04T10:14:09.086Z,29.50
2018-07-04T10:15:09.089Z,29.24
2018-07-04T10:16:09.069Z,29.03
2018-07-04T10:17:09.043Z,28.93
2018-07-04T10:18:09.018Z,28.93
2018-07-04T10:19:09.042Z,29.12
2018-07-04T10:20:09.011Z,29.06
2018-07-04T10:21:08.959Z,28.81
2018-07-04T10:22:08.946Z,28.93
2018-07-04T10:23:08.933Z,28.83
2018-07-04T10:24:08.934Z,28.75
2018-07-04T10:25:08.917Z,28.79
2018-07-04T10:26:08.872Z,29.00
2018-07-04T10:27:08.859Z,29.06
2018-07-04T10:28:08.838Z,29.17
2018-07-04T10:29:08.817Z,29.39
2018-07-04T10:30:08.813Z,29.21
2018-07-04T10:31:08.802Z,28.83
2018-07-04T10:32:08.773Z,28.75
2018-07-04T10:33:08.748Z,28.62
2018-07-04T10:34:08.737Z,28.59
2018-07-04T10:35:08.711Z,28.68
2018-07-04T10:36:10.624Z,28.81
2018-07-04T10:37:08.694Z,28.77
2018-07-04T10:38:08.659Z,28.87
2018-07-04T10:39:10.613Z,28.96
2018-07-04T10:40:08.624Z,28.93
2018-07-04T10:41:08.623Z,28.81
2018-07-04T10:42:08.585Z,29.04
2018-07-04T10:43:08.587Z,29.07
2018-07-04T10:44:10.123Z,28.98
2018-07-04T10:45:08.572Z,29.00
2018-07-04T10:46:10.120Z,28.77
2018-07-04T10:47:08.490Z,28.53
2018-07-04T10:48:08.495Z,28.50
2018-07-04T10:49:08.486Z,28.50
2018-07-04T10:50:08.442Z,28.44
2018-07-04T10:51:08.435Z,28.42
2018-07-04T10:52:11.126Z,28.40
2018-07-04T10:53:08.389Z,28.43
2018-07-04T10:54:08.360Z,28.53
2018-07-04T10:55:08.350Z,28.77
2018-07-04T10:56:08.350Z,28.69
2018-07-04T10:57:08.317Z,28.87
2018-07-04T10:58:08.306Z,29.10
2018-07-04T10:59:08.270Z,29.34
2018-07-04T11:00:08.250Z,29.63
2018-07-04T11:01:08.246Z,29.70
2018-07-04T11:02:08.225Z,29.54
2018-07-04T11:03:08.198Z,29.40
2018-07-04T11:04:10.123Z,29.70
2018-07-04T11:05:08.172Z,29.70
2018-07-04T11:06:08.176Z,29.68
2018-07-04T11:07:20.369Z,29.76
2018-07-04T11:09:01.515Z,30.14
2018-07-04T11:10:01.466Z,30.08
2018-07-04T11:12:10.412Z,30.24
2018-07-04T11:13:10.318Z,30.51
2018-07-04T11:15:13.699Z,31.04
2018-07-04T11:16:13.667Z,31.52
2018-07-04T11:18:07.016Z,31.63
2018-07-04T11:19:07.042Z,31.44
2018-07-04T11:21:10.377Z,32.02
2018-07-04T11:22:10.351Z,31.99
2018-07-04T11:24:08.227Z,31.67
2018-07-04T11:25:08.204Z,32.01
2018-07-04T11:27:17.066Z,31.02
2018-07-04T11:28:17.070Z,30.83
2018-07-04T11:30:21.860Z,31.27
2018-07-04T11:31:21.815Z,31.66
2018-07-04T11:32:21.792Z,31.48
2018-07-04T11:33:21.807Z,31.70
2018-07-04T11:34:21.817Z,31.95
2018-07-04T11:35:21.765Z,31.67
2018-07-04T11:36:21.732Z,32.09
2018-07-04T11:37:21.711Z,32.42
2018-07-04T11:38:21.700Z,32.53
2018-07-04T11:39:21.686Z,32.54
2018-07-04T11:40:21.656Z,32.26
2018-07-04T11:41:21.668Z,32.51
2018-07-04T11:42:21.659Z,32.64
2018-07-04T11:43:21.641Z,33.19
2018-07-04T11:44:21.604Z,33.42
2018-07-04T11:45:21.595Z,33.81
2018-07-04T11:46:21.582Z,33.51
2018-07-04T11:47:21.589Z,33.10
2018-07-04T11:48:21.541Z,32.99
2018-07-04T11:49:21.542Z,33.32
2018-07-04T11:50:21.523Z,33.97
2018-07-04T11:51:21.517Z,33.64
2018-07-04T11:52:21.485Z,32.68
2018-07-04T11:53:21.480Z,32.53
2018-07-04T11:54:21.459Z,32.05
2018-07-04T11:55:21.457Z,32.82
2018-07-04T11:56:21.429Z,32.41
2018-07-04T11:57:21.414Z,32.21
2018-07-04T11:58:21.440Z,31.71
2018-07-04T11:59:21.394Z,31.41
2018-07-04T12:00:21.377Z,31.27
2018-07-04T12:01:21.365Z,31.17
2018-07-04T12:02:21.346Z,31.15
2018-07-04T12:03:21.333Z,31.04
2018-07-04T12:04:21.350Z,31.14
2018-07-04T12:05:21.322Z,31.19
2018-07-04T12:06:21.342Z,31.07
2018-07-04T12:07:21.279Z,31.11
2018-07-04T12:08:21.256Z,31.04
2018-07-04T12:09:21.249Z,30.97
2018-07-04T12:10:21.255Z,30.56
2018-07-04T12:11:21.258Z,30.48
2018-07-04T12:12:21.217Z,30.53
2018-07-04T12:13:21.192Z,30.49
2018-07-04T12:14:21.175Z,30.83
2018-07-04T12:15:21.166Z,31.08
2018-07-04T12:16:21.135Z,31.04
2018-07-04T12:17:21.122Z,31.32
2018-07-04T12:18:21.102Z,31.33
2018-07-04T12:19:21.091Z,31.27
2018-07-04T12:20:39.784Z,31.14
2018-07-04T12:22:27.011Z,31.14
2018-07-04T12:23:26.968Z,30.97
2018-07-04T12:25:21.663Z,31.26
2018-07-04T12:26:21.481Z,31.42
2018-07-04T12:28:22.999Z,31.27
2018-07-04T12:29:22.745Z,31.54
2018-07-04T12:31:17.137Z,31.87
2018-07-04T12:32:17.027Z,32.21
2018-07-04T12:34:10.397Z,32.75
2018-07-04T12:35:10.362Z,33.14
2018-07-04T12:37:19.094Z,33.52
2018-07-04T12:38:19.048Z,33.76
2018-07-04T12:40:24.828Z,34.56
2018-07-04T12:41:24.784Z,33.82
2018-07-04T12:42:26.468Z,33.35
2018-07-04T12:43:24.827Z,33.12
2018-07-04T12:44:24.788Z,33.22
2018-07-04T12:45:24.716Z,32.87
2018-07-04T12:46:24.706Z,32.75
2018-07-04T12:47:24.752Z,32.91
2018-07-04T12:48:24.684Z,32.51
2018-07-04T12:49:24.682Z,32.79
2018-07-04T12:50:24.660Z,32.88
2018-07-04T12:51:24.658Z,32.50
2018-07-04T12:52:24.635Z,32.06
2018-07-04T12:53:24.643Z,32.57
2018-07-04T12:54:24.678Z,32.87
2018-07-04T12:55:24.589Z,32.32
2018-07-04T12:56:24.581Z,32.09
2018-07-04T12:57:24.616Z,32.45
2018-07-04T12:58:24.557Z,32.76
2018-07-04T12:59:24.604Z,33.17
2018-07-04T13:00:24.550Z,33.16
2018-07-04T13:01:24.522Z,33.04
2018-07-04T13:02:24.512Z,32.31
2018-07-04T13:03:24.516Z,32.08
2018-07-04T13:04:24.533Z,32.33
2018-07-04T13:05:24.554Z,32.39
2018-07-04T13:06:25.420Z,32.11
2018-07-04T13:07:25.032Z,32.35
2018-07-04T13:08:24.449Z,32.39
2018-07-04T13:09:24.440Z,32.02
2018-07-04T13:10:24.458Z,31.64
2018-07-04T13:11:24.406Z,31.86
2018-07-04T13:12:24.375Z,32.36
2018-07-04T13:13:27.014Z,31.99
2018-07-04T13:14:24.363Z,31.97
2018-07-04T13:15:25.958Z,31.23
2018-07-04T13:16:24.325Z,30.73
2018-07-04T13:17:24.319Z,30.93